ΕΜΥ, Εθνική Μετεωρολογική Υπηρεσία - Δελτία Καιρού, Προγνώσεις

ΑΕΡΟΝΑΥΤΙΛΙΑ

GREEK AIRPORTS CODES

LGLR 041450Z 12005KT 9999 SCT030 BKN080 11/04 Q1010=

EUROPEAN AIRPORTS CODES

LFPO 041500Z 35005KT 330V040 9999 SCT016 BKN032 09/08 Q1038NOSIG=